< < Back
Terminal Aerodrome Forecast


Current Version              Previous Versions:   1  2  3  4  5  6  7  8  9  

Terminal Aerodrome Forecast

663
FTUS42 KILM 301734
TAFFLO
TAF
KFLO 301734Z 3018/0118 16006KT P6SM VCSH BKN035
      TEMPO 3020/3024 3SM TSRA BKN020CB
     FM010100 20004KT P6SM FEW050 BKN250
      TEMPO 0109/0111 4SM BR=

Latest METAR

209
SAUS70 KWBC 011300 RRX
MTRFLO
METAR KFLO 011253Z 18007KT 10SM SCT015 BKN110 26/22 A3003 RMK AO2 SLP165
T02560222


USA.gov is the U.S. government's official web portal to all federal, state and local government web resources and services.